Time,TemperatureF,DewpointF,PressureIn,WindDirection,WindDirectionDegrees,WindSpeedMPH,WindSpeedGustMPH,Humidity,HourlyPrecipIn,Conditions,Clouds,dailyrainin,SoftwareType,DateUTC
2013-06-05 00:00:00,63.9,55.1,30.01,SE,130,0.0,0.0,73,0.00,,,0.00,Wunderground v.1.15,2013-06-05 05:00:00,
2013-06-05 00:10:00,63.6,54.8,30.01,SE,130,0.0,0.0,73,0.00,,,0.00,Wunderground v.1.15,2013-06-05 05:10:00,
2013-06-05 00:25:00,62.8,54.8,30.01,SE,130,0.0,0.0,75,0.00,,,0.00,Wunderground v.1.15,2013-06-05 05:25:00,
2013-06-05 00:35:00,62.5,54.8,30.01,SE,130,0.0,0.0,76,0.00,,,0.00,Wunderground v.1.15,2013-06-05 05:35:00,
2013-06-05 00:45:00,62.3,54.6,30.01,SE,130,0.0,0.0,76,0.00,,,0.00,Wunderground v.1.15,2013-06-05 05:45:00,
2013-06-05 00:55:00,62.1,54.4,30.01,SE,130,0.0,0.0,76,0.00,,,0.00,Wunderground v.1.15,2013-06-05 05:55:00,
2013-06-05 01:00:00,62.0,54.3,30.01,SE,130,0.0,0.0,76,0.00,,,0.00,Wunderground v.1.15,2013-06-05 06:00:00,
2013-06-05 01:05:00,61.7,54.4,30.01,SE,130,0.0,0.0,77,0.00,,,0.00,Wunderground v.1.15,2013-06-05 06:05:00,
2013-06-05 01:10:00,61.7,54.4,30.01,SE,130,0.0,0.0,77,0.00,,,0.00,Wunderground v.1.15,2013-06-05 06:10:00,
2013-06-05 01:15:00,61.4,54.5,30.01,SE,130,0.0,0.0,78,0.00,,,0.00,Wunderground v.1.15,2013-06-05 06:15:00,
2013-06-05 01:30:00,61.0,54.1,30.00,SE,130,0.0,0.0,78,0.00,,,0.00,Wunderground v.1.15,2013-06-05 06:30:00,
2013-06-05 01:50:00,60.4,53.9,30.00,SE,130,0.0,0.0,79,0.00,,,0.00,Wunderground v.1.15,2013-06-05 06:50:00,
2013-06-05 02:00:00,60.4,54.2,30.00,SE,130,0.0,0.0,80,0.00,,,0.00,Wunderground v.1.15,2013-06-05 07:00:00,
2013-06-05 02:05:00,60.3,54.1,30.01,SE,130,0.0,0.0,80,0.00,,,0.00,Wunderground v.1.15,2013-06-05 07:05:00,
2013-06-05 02:15:00,60.1,53.9,30.01,SE,130,0.0,0.0,80,0.00,,,0.00,Wunderground v.1.15,2013-06-05 07:15:00,
2013-06-05 02:20:00,59.9,53.7,30.01,SE,130,0.0,0.0,80,0.00,,,0.00,Wunderground v.1.15,2013-06-05 07:20:00,
2013-06-05 02:35:00,59.6,53.4,30.01,SE,130,0.0,0.0,80,0.00,,,0.00,Wunderground v.1.15,2013-06-05 07:35:00,
2013-06-05 02:40:00,59.6,53.4,30.01,SE,130,0.0,0.0,80,0.00,,,0.00,Wunderground v.1.15,2013-06-05 07:40:00,
2013-06-05 02:45:00,59.6,53.4,30.01,SE,130,0.0,0.0,80,0.00,,,0.00,Wunderground v.1.15,2013-06-05 07:45:00,
2013-06-05 02:50:00,59.6,53.4,30.00,SE,130,0.0,0.0,80,0.00,,,0.00,Wunderground v.1.15,2013-06-05 07:50:00,
2013-06-05 02:55:00,59.6,53.4,30.00,SE,130,0.0,0.0,80,0.00,,,0.00,Wunderground v.1.15,2013-06-05 07:55:00,
2013-06-05 03:00:00,59.6,53.4,30.00,SE,130,0.0,0.0,80,0.00,,,0.00,Wunderground v.1.15,2013-06-05 08:00:00,
2013-06-05 03:05:00,59.5,53.3,30.00,SE,130,0.0,0.0,80,0.00,,,0.00,Wunderground v.1.15,2013-06-05 08:05:00,
2013-06-05 03:20:00,59.2,53.0,30.00,SE,128,0.0,0.0,80,0.00,,,0.00,Wunderground v.1.15,2013-06-05 08:20:00,
2013-06-05 03:25:00,59.0,53.2,30.00,SE,128,0.0,0.0,81,0.00,,,0.00,Wunderground v.1.15,2013-06-05 08:25:00,
2013-06-05 03:30:00,58.9,53.1,30.00,SE,128,0.0,0.0,81,0.00,,,0.00,Wunderground v.1.15,2013-06-05 08:30:00,
2013-06-05 03:35:00,58.7,52.9,30.00,SE,128,0.0,0.0,81,0.00,,,0.00,Wunderground v.1.15,2013-06-05 08:35:00,
2013-06-05 03:40:00,58.7,52.9,30.00,SE,128,0.0,0.0,81,0.00,,,0.00,Wunderground v.1.15,2013-06-05 08:40:00,
2013-06-05 03:50:00,58.7,53.2,29.99,SE,128,0.0,0.0,82,0.00,,,0.00,Wunderground v.1.15,2013-06-05 08:50:00,
2013-06-05 03:55:00,58.6,53.1,29.99,SE,128,0.0,0.0,82,0.00,,,0.00,Wunderground v.1.15,2013-06-05 08:55:00,
2013-06-05 04:00:00,58.6,53.1,29.99,SE,128,0.0,0.0,82,0.00,,,0.00,Wunderground v.1.15,2013-06-05 09:00:00,
2013-06-05 04:10:00,58.3,53.2,30.00,SE,128,0.0,0.0,83,0.00,,,0.00,Wunderground v.1.15,2013-06-05 09:10:00,
2013-06-05 04:15:00,58.4,53.3,30.00,SE,128,0.0,0.0,83,0.00,,,0.00,Wunderground v.1.15,2013-06-05 09:15:00,
2013-06-05 04:20:00,58.4,53.3,30.00,SE,128,0.0,0.0,83,0.00,,,0.00,Wunderground v.1.15,2013-06-05 09:20:00,
2013-06-05 04:30:00,58.4,53.3,30.00,SE,128,0.0,0.0,83,0.00,,,0.00,Wunderground v.1.15,2013-06-05 09:30:00,
2013-06-05 04:35:00,58.4,53.3,30.00,SE,128,0.0,0.0,83,0.00,,,0.00,Wunderground v.1.15,2013-06-05 09:35:00,
2013-06-05 04:40:00,58.4,53.3,30.00,SE,128,0.0,0.0,83,0.00,,,0.00,Wunderground v.1.15,2013-06-05 09:40:00,
2013-06-05 04:45:00,58.4,53.3,30.00,SE,128,0.0,0.0,83,0.00,,,0.00,Wunderground v.1.15,2013-06-05 09:45:00,
2013-06-05 04:50:00,58.4,53.3,30.00,SE,128,0.0,0.0,83,0.00,,,0.00,Wunderground v.1.15,2013-06-05 09:50:00,
2013-06-05 05:00:00,58.6,53.5,30.00,ESE,114,0.0,0.0,83,0.00,,,0.00,Wunderground v.1.15,2013-06-05 10:00:00,
2013-06-05 05:10:00,58.7,53.2,29.99,SSE,147,0.0,0.0,82,0.00,,,0.00,Wunderground v.1.15,2013-06-05 10:10:00,
2013-06-05 05:15:00,58.7,53.2,29.99,SE,143,0.0,0.0,82,0.00,,,0.00,Wunderground v.1.15,2013-06-05 10:15:00,
2013-06-05 05:20:00,58.7,53.2,29.99,SE,124,0.0,0.0,82,0.00,,,0.00,Wunderground v.1.15,2013-06-05 10:20:00,
2013-06-05 05:30:00,58.7,53.2,29.99,ESE,123,0.0,0.0,82,0.00,,,0.00,Wunderground v.1.15,2013-06-05 10:30:00,
2013-06-05 05:35:00,58.7,53.2,30.00,ESE,123,0.0,0.0,82,0.00,,,0.00,Wunderground v.1.15,2013-06-05 10:35:00,
2013-06-05 05:45:00,58.7,52.9,30.00,ESE,123,0.0,0.0,81,0.00,,,0.00,Wunderground v.1.15,2013-06-05 10:45:00,
2013-06-05 05:55:00,58.7,52.9,29.99,ESE,123,0.0,0.0,81,0.00,,,0.00,Wunderground v.1.15,2013-06-05 10:55:00,
2013-06-05 06:00:00,58.7,52.9,29.99,ESE,123,0.0,0.0,81,0.00,,,0.00,Wunderground v.1.15,2013-06-05 11:00:00,
2013-06-05 06:15:00,58.7,53.2,29.98,ENE,58,0.0,0.0,82,0.00,,,0.00,Wunderground v.1.15,2013-06-05 11:15:00,
2013-06-05 06:25:00,58.7,52.9,29.98,ENE,64,0.0,0.0,81,0.00,,,0.00,Wunderground v.1.15,2013-06-05 11:25:00,
2013-06-05 06:30:00,58.9,53.1,29.98,ESE,117,0.0,0.0,81,0.00,,,0.00,Wunderground v.1.15,2013-06-05 11:30:00,
2013-06-05 06:35:00,58.9,53.1,29.99,ESE,117,0.0,0.0,81,0.00,,,0.00,Wunderground v.1.15,2013-06-05 11:35:00,
2013-06-05 06:45:00,59.0,52.8,29.99,ESE,117,0.0,0.0,80,0.00,,,0.00,Wunderground v.1.15,2013-06-05 11:45:00,
2013-06-05 06:50:00,59.2,53.0,29.99,ESE,117,0.0,0.0,80,0.00,,,0.00,Wunderground v.1.15,2013-06-05 11:50:00,
2013-06-05 06:55:00,59.2,53.0,29.99,ESE,117,0.0,0.0,80,0.00,,,0.00,Wunderground v.1.15,2013-06-05 11:55:00,
2013-06-05 07:00:00,59.3,53.1,29.99,ESE,117,0.0,0.0,80,0.00,,,0.00,Wunderground v.1.15,2013-06-05 12:00:00,
2013-06-05 07:05:00,59.5,53.3,29.98,South,169,0.0,0.0,80,0.00,,,0.00,Wunderground v.1.15,2013-06-05 12:05:00,
2013-06-05 07:10:00,59.3,53.1,29.98,ESE,106,0.0,0.0,80,0.00,,,0.00,Wunderground v.1.15,2013-06-05 12:10:00,
2013-06-05 07:20:00,59.5,53.3,29.97,SE,126,0.0,0.0,80,0.00,,,0.00,Wunderground v.1.15,2013-06-05 12:20:00,
2013-06-05 07:25:00,59.6,53.4,29.97,SE,143,0.0,0.0,80,0.00,,,0.00,Wunderground v.1.15,2013-06-05 12:25:00,
2013-06-05 07:35:00,60.1,54.6,29.97,SE,141,0.0,0.0,82,0.00,,,0.00,Wunderground v.1.15,2013-06-05 12:35:00,
2013-06-05 07:45:00,60.9,54.3,29.97,SSE,164,0.0,0.0,79,0.00,,,0.00,Wunderground v.1.15,2013-06-05 12:45:00,
2013-06-05 07:50:00,61.2,54.3,29.97,SSE,162,0.0,0.0,78,0.00,,,0.00,Wunderground v.1.15,2013-06-05 12:50:00,
2013-06-05 07:55:00,61.4,54.5,29.97,SSE,162,0.0,0.0,78,0.00,,,0.00,Wunderground v.1.15,2013-06-05 12:55:00,
2013-06-05 08:10:00,62.5,55.2,29.96,SSE,162,0.0,0.0,77,0.00,,,0.00,Wunderground v.1.15,2013-06-05 13:10:00,
2013-06-05 08:20:00,63.3,55.6,29.95,SE,141,0.0,0.0,76,0.00,,,0.00,Wunderground v.1.15,2013-06-05 13:20:00,
2013-06-05 08:30:00,63.6,55.5,29.95,SE,141,0.0,0.0,75,0.00,,,0.00,Wunderground v.1.15,2013-06-05 13:30:00,
2013-06-05 08:35:00,63.9,55.8,29.95,SE,138,0.0,0.0,75,0.00,,,0.00,Wunderground v.1.15,2013-06-05 13:35:00,
2013-06-05 08:40:00,64.1,55.6,29.95,ENE,58,0.0,0.0,74,0.00,,,0.00,Wunderground v.1.15,2013-06-05 13:40:00,
2013-06-05 08:45:00,64.2,55.7,29.95,East,83,0.0,0.0,74,0.00,,,0.00,Wunderground v.1.15,2013-06-05 13:45:00,
2013-06-05 08:50:00,64.4,55.9,29.96,East,83,0.0,0.0,74,0.00,,,0.00,Wunderground v.1.15,2013-06-05 13:50:00,
2013-06-05 09:00:00,64.7,56.2,29.96,East,82,0.0,0.0,74,0.00,,,0.00,Wunderground v.1.15,2013-06-05 14:00:00,
2013-06-05 09:05:00,65.0,56.1,29.96,East,82,0.0,0.0,73,0.00,,,0.00,Wunderground v.1.15,2013-06-05 14:05:00,
2013-06-05 09:10:00,65.5,56.2,29.96,East,82,0.0,0.0,72,0.00,,,0.00,Wunderground v.1.15,2013-06-05 14:10:00,
2013-06-05 09:15:00,65.8,56.9,29.96,East,82,0.0,0.0,73,0.00,,,0.00,Wunderground v.1.15,2013-06-05 14:15:00,
2013-06-05 09:20:00,66.0,56.3,29.96,East,82,0.0,0.0,71,0.00,,,0.00,Wunderground v.1.15,2013-06-05 14:20:00,
2013-06-05 09:25:00,66.0,56.7,29.96,East,82,0.0,0.0,72,0.00,,,0.00,Wunderground v.1.15,2013-06-05 14:25:00,
2013-06-05 09:30:00,66.0,56.7,29.96,East,82,0.0,0.0,72,0.00,,,0.00,Wunderground v.1.15,2013-06-05 14:30:00,
2013-06-05 09:35:00,66.2,56.9,29.97,East,97,0.0,2.0,72,0.00,,,0.00,Wunderground v.1.15,2013-06-05 14:35:00,
2013-06-05 09:40:00,66.2,56.5,29.97,East,97,0.0,2.0,71,0.00,,,0.00,Wunderground v.1.15,2013-06-05 14:40:00,
2013-06-05 09:50:00,66.3,56.2,29.97,East,97,0.0,0.0,70,0.00,,,0.00,Wunderground v.1.15,2013-06-05 14:50:00,
2013-06-05 09:55:00,66.5,56.8,29.97,East,97,0.0,0.0,71,0.00,,,0.00,Wunderground v.1.15,2013-06-05 14:55:00,
2013-06-05 10:00:00,66.7,56.6,29.97,SSE,164,0.0,1.0,70,0.00,,,0.00,Wunderground v.1.15,2013-06-05 15:00:00,
2013-06-05 10:10:00,67.2,56.7,29.97,SSE,162,0.0,0.0,69,0.00,,,0.00,Wunderground v.1.15,2013-06-05 15:10:00,
2013-06-05 10:20:00,67.8,56.9,29.97,SSE,162,0.0,0.0,68,0.00,,,0.00,Wunderground v.1.15,2013-06-05 15:20:00,
2013-06-05 10:25:00,68.0,57.0,29.97,SSE,162,0.0,0.0,68,0.00,,,0.00,Wunderground v.1.15,2013-06-05 15:25:00,
2013-06-05 10:30:00,68.2,56.8,29.97,SSE,162,0.0,0.0,67,0.00,,,0.00,Wunderground v.1.15,2013-06-05 15:30:00,
2013-06-05 10:35:00,68.3,56.5,29.98,SSE,162,0.0,0.0,66,0.00,,,0.00,Wunderground v.1.15,2013-06-05 15:35:00,
2013-06-05 10:40:00,68.3,56.1,29.98,SSE,162,0.0,2.0,65,0.00,,,0.00,Wunderground v.1.15,2013-06-05 15:40:00,
2013-06-05 10:45:00,68.5,56.7,29.98,SSE,162,0.0,0.0,66,0.00,,,0.00,Wunderground v.1.15,2013-06-05 15:45:00,
2013-06-05 11:00:00,69.5,57.6,29.97,SSE,162,0.0,0.0,66,0.00,,,0.00,Wunderground v.1.15,2013-06-05 16:00:00,
2013-06-05 11:10:00,70.3,57.1,29.95,South,191,1.0,2.0,63,0.00,,,0.00,Wunderground v.1.15,2013-06-05 16:10:00,
2013-06-05 11:20:00,70.5,58.2,29.95,SE,137,1.0,1.0,65,0.00,,,0.00,Wunderground v.1.15,2013-06-05 16:20:00,
2013-06-05 11:25:00,70.3,57.1,29.95,SSE,168,0.0,1.0,63,0.00,,,0.00,Wunderground v.1.15,2013-06-05 16:25:00,
2013-06-05 11:35:00,70.0,55.9,29.95,SE,136,0.0,0.0,61,0.00,,,0.00,Wunderground v.1.15,2013-06-05 16:35:00,
2013-06-05 11:45:00,71.2,58.0,29.95,SSE,148,1.0,1.0,63,0.00,,,0.00,Wunderground v.1.15,2013-06-05 16:45:00,
2013-06-05 11:55:00,72.1,58.4,29.95,South,171,0.0,0.0,62,0.00,,,0.00,Wunderground v.1.15,2013-06-05 16:55:00,
2013-06-05 12:10:00,71.9,56.3,29.94,East,96,0.0,3.0,58,0.00,,,0.00,Wunderground v.1.15,2013-06-05 17:10:00,
2013-06-05 12:20:00,71.5,55.9,29.93,SSE,152,0.0,0.0,58,0.00,,,0.00,Wunderground v.1.15,2013-06-05 17:20:00,
2013-06-05 12:25:00,71.5,56.4,29.93,ENE,61,0.0,0.0,59,0.00,,,0.00,Wunderground v.1.15,2013-06-05 17:25:00,
2013-06-05 12:30:00,71.5,55.9,29.93,ESE,119,0.0,0.0,58,0.00,,,0.00,Wunderground v.1.15,2013-06-05 17:30:00,
2013-06-05 12:35:00,71.4,55.9,29.93,SE,137,0.0,0.0,58,0.00,,,0.00,Wunderground v.1.15,2013-06-05 17:35:00,
2013-06-05 12:40:00,71.5,55.5,29.93,SE,144,0.0,0.0,57,0.00,,,0.00,Wunderground v.1.15,2013-06-05 17:40:00,
2013-06-05 12:50:00,71.7,54.7,29.93,SE,144,0.0,0.0,55,0.00,,,0.00,Wunderground v.1.15,2013-06-05 17:50:00,
2013-06-05 13:00:00,72.1,56.5,29.93,SSE,162,1.0,1.0,58,0.00,,,0.00,Wunderground v.1.15,2013-06-05 18:00:00,
2013-06-05 13:10:00,72.4,56.8,29.93,SSE,154,1.0,1.0,58,0.00,,,0.00,Wunderground v.1.15,2013-06-05 18:10:00,
2013-06-05 13:15:00,72.6,56.5,29.93,South,181,1.0,1.0,57,0.00,,,0.00,Wunderground v.1.15,2013-06-05 18:15:00,
2013-06-05 13:20:00,72.7,55.6,29.93,SSE,154,0.0,0.0,55,0.00,,,0.00,Wunderground v.1.15,2013-06-05 18:20:00,
2013-06-05 13:25:00,72.7,56.6,29.93,SW,220,0.0,0.0,57,0.00,,,0.00,Wunderground v.1.15,2013-06-05 18:25:00,
2013-06-05 13:35:00,72.9,57.7,29.94,SSE,161,0.0,0.0,59,0.00,,,0.00,Wunderground v.1.15,2013-06-05 18:35:00,
2013-06-05 13:45:00,73.3,56.2,29.94,SSE,157,0.0,0.0,55,0.00,,,0.00,Wunderground v.1.15,2013-06-05 18:45:00,
2013-06-05 13:55:00,73.3,56.2,29.93,SE,136,1.0,1.0,55,0.00,,,0.00,Wunderground v.1.15,2013-06-05 18:55:00,
2013-06-05 14:00:00,73.3,57.1,29.93,WNW,302,1.0,1.0,57,0.00,,,0.00,Wunderground v.1.15,2013-06-05 19:00:00,
2013-06-05 14:10:00,73.8,56.1,29.93,SSW,208,0.0,0.0,54,0.00,,,0.00,Wunderground v.1.15,2013-06-05 19:10:00,
2013-06-05 14:15:00,73.8,57.1,29.93,SSW,208,0.0,0.0,56,0.00,,,0.00,Wunderground v.1.15,2013-06-05 19:15:00,
2013-06-05 14:20:00,74.0,57.8,29.92,SSE,150,0.0,0.0,57,0.00,,,0.00,Wunderground v.1.15,2013-06-05 19:20:00,
2013-06-05 14:25:00,74.3,57.1,29.92,South,182,0.0,2.0,55,0.00,,,0.00,Wunderground v.1.15,2013-06-05 19:25:00,
2013-06-05 14:35:00,74.1,56.4,29.92,SSE,158,0.0,0.0,54,0.00,,,0.00,Wunderground v.1.15,2013-06-05 19:35:00,
2013-06-05 14:44:00,74.5,56.8,29.92,SSE,158,0.0,0.0,54,0.00,,,0.00,Wunderground v.1.15,2013-06-05 19:44:00,
2013-06-05 14:54:00,74.5,57.3,29.91,SSW,199,0.0,1.0,55,0.00,,,0.00,Wunderground v.1.15,2013-06-05 19:54:00,
2013-06-05 14:59:00,74.5,57.3,29.91,SSW,202,0.0,1.0,55,0.00,,,0.00,Wunderground v.1.15,2013-06-05 19:59:00,
2013-06-05 15:10:00,74.3,57.6,29.90,South,186,0.0,0.0,56,0.00,,,0.00,Wunderground v.1.15,2013-06-05 20:10:00,
2013-06-05 15:24:00,74.1,56.9,29.90,SSE,165,0.0,0.0,55,0.00,,,0.00,Wunderground v.1.15,2013-06-05 20:24:00,
2013-06-05 15:34:00,74.3,56.6,29.90,SSW,203,0.0,0.0,54,0.00,,,0.00,Wunderground v.1.15,2013-06-05 20:34:00,
2013-06-05 15:44:00,75.0,58.2,29.90,SW,232,0.0,0.0,56,0.00,,,0.00,Wunderground v.1.15,2013-06-05 20:44:00,
2013-06-05 15:54:00,75.4,58.1,29.89,SW,234,0.0,0.0,55,0.00,,,0.00,Wunderground v.1.15,2013-06-05 20:54:00,
2013-06-05 16:00:00,75.4,56.5,29.89,SW,234,0.0,0.0,52,0.00,,,0.00,Wunderground v.1.15,2013-06-05 21:00:00,
2013-06-05 16:04:00,75.0,55.6,29.88,SW,233,0.0,0.0,51,0.00,,,0.00,Wunderground v.1.15,2013-06-05 21:04:00,
2013-06-05 16:09:00,74.7,56.9,29.88,SE,130,0.0,0.0,54,0.00,,,0.00,Wunderground v.1.15,2013-06-05 21:09:00,
2013-06-05 16:19:00,74.7,56.9,29.88,SSW,196,0.0,0.0,54,0.00,,,0.00,Wunderground v.1.15,2013-06-05 21:19:00,
2013-06-05 16:25:00,74.8,56.5,29.88,SSW,196,0.0,0.0,53,0.00,,,0.00,Wunderground v.1.15,2013-06-05 21:25:00,
2013-06-05 16:29:00,74.8,56.5,29.88,South,189,0.0,0.0,53,0.00,,,0.00,Wunderground v.1.15,2013-06-05 21:29:00,
2013-06-05 16:39:00,74.7,56.9,29.87,SE,137,0.0,0.0,54,0.00,,,0.00,Wunderground v.1.15,2013-06-05 21:39:00,
2013-06-05 16:49:00,74.3,53.9,29.87,SE,137,0.0,0.0,49,0.00,,,0.00,Wunderground v.1.15,2013-06-05 21:49:00,
2013-06-05 16:54:00,74.5,55.2,29.87,SE,137,0.0,0.0,51,0.00,,,0.00,Wunderground v.1.15,2013-06-05 21:54:00,
2013-06-05 17:00:00,74.5,55.2,29.87,SE,143,0.0,0.0,51,0.00,,,0.00,Wunderground v.1.15,2013-06-05 22:00:00,
2013-06-05 17:04:00,74.3,55.0,29.86,SE,137,0.0,0.0,51,0.00,,,0.00,Wunderground v.1.15,2013-06-05 22:04:00,
2013-06-05 17:09:00,74.3,55.5,29.86,SE,137,0.0,0.0,52,0.00,,,0.00,Wunderground v.1.15,2013-06-05 22:09:00,
2013-06-05 17:20:00,74.1,56.9,29.86,SE,136,0.0,0.0,55,0.00,,,0.00,Wunderground v.1.15,2013-06-05 22:20:00,
2013-06-05 17:24:00,73.8,56.1,29.86,SE,128,0.0,0.0,54,0.00,,,0.00,Wunderground v.1.15,2013-06-05 22:24:00,
2013-06-05 17:34:00,73.6,55.4,29.85,SE,128,0.0,0.0,53,0.00,,,0.00,Wunderground v.1.15,2013-06-05 22:34:00,
2013-06-05 17:45:00,73.4,55.2,29.85,SE,127,0.0,0.0,53,0.00,,,0.00,Wunderground v.1.15,2013-06-05 22:45:00,
2013-06-05 17:49:00,73.4,55.2,29.86,East,88,0.0,0.0,53,0.00,,,0.00,Wunderground v.1.15,2013-06-05 22:49:00,
2013-06-05 17:59:00,73.4,55.7,29.86,SSE,151,0.0,0.0,54,0.00,,,0.00,Wunderground v.1.15,2013-06-05 22:59:00,
2013-06-05 18:05:00,73.4,56.2,29.87,SSE,150,0.0,0.0,55,0.00,,,0.00,Wunderground v.1.15,2013-06-05 23:05:00,
2013-06-05 18:19:00,73.3,55.1,29.86,SE,126,0.0,0.0,53,0.00,,,0.00,Wunderground v.1.15,2013-06-05 23:19:00,
2013-06-05 18:30:00,73.1,54.4,29.86,SE,126,0.0,0.0,52,0.00,,,0.00,Wunderground v.1.15,2013-06-05 23:30:00,
2013-06-05 18:34:00,72.9,55.3,29.87,SE,126,0.0,0.0,54,0.00,,,0.00,Wunderground v.1.15,2013-06-05 23:34:00,
2013-06-05 18:44:00,72.9,55.8,29.87,ENE,69,0.0,3.0,55,0.00,,,0.00,Wunderground v.1.15,2013-06-05 23:44:00,
2013-06-05 18:55:00,70.5,58.6,29.87,NE,40,2.0,2.0,66,0.00,,,0.00,Wunderground v.1.15,2013-06-05 23:55:00,
2013-06-05 18:59:00,70.0,59.0,29.87,NNE,25,2.0,5.0,68,0.00,,,0.00,Wunderground v.1.15,2013-06-05 23:59:00,
2013-06-05 19:05:00,69.3,58.7,29.87,NE,35,1.0,3.0,69,0.00,,,0.00,Wunderground v.1.15,2013-06-06 00:05:00,
2013-06-05 19:09:00,69.0,58.4,29.87,NNE,27,3.0,3.0,69,0.00,,,0.00,Wunderground v.1.15,2013-06-06 00:09:00,
2013-06-05 19:19:00,68.3,59.3,29.87,NNE,32,0.0,1.0,73,0.00,,,0.00,Wunderground v.1.15,2013-06-06 00:19:00,
2013-06-05 19:25:00,68.2,59.6,29.87,NNE,32,1.0,1.0,74,0.00,,,0.00,Wunderground v.1.15,2013-06-06 00:25:00,
2013-06-05 19:29:00,68.0,59.4,29.87,NNE,32,1.0,5.0,74,0.00,,,0.00,Wunderground v.1.15,2013-06-06 00:29:00,
2013-06-05 19:44:00,67.3,59.1,29.87,NE,41,1.0,1.0,75,0.00,,,0.00,Wunderground v.1.15,2013-06-06 00:44:00,
2013-06-05 19:50:00,67.2,59.0,29.87,NE,41,0.0,1.0,75,0.00,,,0.00,Wunderground v.1.15,2013-06-06 00:50:00,
2013-06-05 19:54:00,67.0,58.8,29.87,NNE,30,0.0,3.0,75,0.00,,,0.00,Wunderground v.1.15,2013-06-06 00:54:00,
2013-06-05 20:04:00,66.8,59.0,29.88,NNE,25,1.0,5.0,76,0.00,,,0.00,Wunderground v.1.15,2013-06-06 01:04:00,
2013-06-05 20:09:00,66.5,58.7,29.88,NE,52,2.0,5.0,76,0.00,,,0.00,Wunderground v.1.15,2013-06-06 01:09:00,
2013-06-05 20:19:00,66.2,58.8,29.88,NNE,31,2.0,2.0,77,0.00,,,0.00,Wunderground v.1.15,2013-06-06 01:19:00,
2013-06-05 20:25:00,66.0,58.9,29.88,NNE,21,2.0,2.0,78,0.00,,,0.00,Wunderground v.1.15,2013-06-06 01:25:00,
2013-06-05 20:29:00,65.8,58.7,29.88,NE,42,2.0,2.0,78,0.00,,,0.00,Wunderground v.1.15,2013-06-06 01:29:00,
2013-06-05 20:35:00,65.8,59.5,29.87,NNE,23,2.0,2.0,80,0.00,,,0.00,Wunderground v.1.15,2013-06-06 01:35:00,
2013-06-05 20:44:00,65.4,59.4,29.87,NNE,31,1.0,4.0,81,0.00,,,0.00,Wunderground v.1.15,2013-06-06 01:44:00,
2013-06-05 20:54:00,64.9,59.6,29.87,NE,40,2.0,2.0,83,0.00,,,0.00,Wunderground v.1.15,2013-06-06 01:54:00,
2013-06-05 21:04:00,64.6,59.7,29.88,NE,37,1.0,2.0,84,0.00,,,0.00,Wunderground v.1.15,2013-06-06 02:04:00,
2013-06-05 21:20:00,63.7,59.4,29.88,NE,34,2.0,5.0,86,0.00,,,0.00,Wunderground v.1.15,2013-06-06 02:20:00,
2013-06-05 21:34:00,62.9,59.0,29.88,North,10,1.0,1.0,87,0.00,,,0.01,Wunderground v.1.15,2013-06-06 02:34:00,
2013-06-05 21:39:00,62.6,58.7,29.88,NE,35,1.0,1.0,87,0.00,,,0.01,Wunderground v.1.15,2013-06-06 02:39:00,
2013-06-05 21:45:00,62.6,59.0,29.88,NE,35,1.0,1.0,88,0.00,,,0.01,Wunderground v.1.15,2013-06-06 02:45:00,
2013-06-05 21:59:00,62.3,59.0,29.89,NNE,28,1.0,1.0,89,0.00,,,0.02,Wunderground v.1.15,2013-06-06 02:59:00,
2013-06-05 22:05:00,62.0,58.7,29.89,NNE,28,1.0,1.0,89,0.00,,,0.02,Wunderground v.1.15,2013-06-06 03:05:00,
2013-06-05 22:10:00,61.8,58.5,29.89,NNE,32,1.0,1.0,89,0.04,,,0.03,Wunderground v.1.15,2013-06-06 03:10:00,
2013-06-05 22:14:00,61.7,58.4,29.89,NNE,32,0.0,1.0,89,0.04,,,0.03,Wunderground v.1.15,2013-06-06 03:14:00,
2013-06-05 22:20:00,61.5,58.5,29.89,NE,34,0.0,2.0,90,0.04,,,0.03,Wunderground v.1.15,2013-06-06 03:20:00,
2013-06-05 22:30:00,61.0,58.4,29.89,NE,49,0.0,2.0,91,0.00,,,0.03,Wunderground v.1.15,2013-06-06 03:30:00,
2013-06-05 22:34:00,60.9,58.3,29.89,NE,40,0.0,2.0,91,0.00,,,0.04,Wunderground v.1.15,2013-06-06 03:34:00,
2013-06-05 22:40:00,60.7,58.1,29.89,NNE,31,0.0,0.0,91,0.00,,,0.04,Wunderground v.1.15,2013-06-06 03:40:00,
2013-06-05 22:54:00,60.3,58.0,29.89,NNE,30,0.0,0.0,92,0.05,,,0.05,Wunderground v.1.15,2013-06-06 03:54:00,
2013-06-05 23:04:00,60.1,57.8,29.89,NNE,31,0.0,0.0,92,0.00,,,0.05,Wunderground v.1.15,2013-06-06 04:04:00,
2013-06-05 23:09:00,59.9,57.6,29.89,NNE,27,0.0,0.0,92,0.00,,,0.05,Wunderground v.1.15,2013-06-06 04:09:00,
2013-06-05 23:15:00,59.8,57.5,29.89,NNE,31,0.0,0.0,92,0.00,,,0.05,Wunderground v.1.15,2013-06-06 04:15:00,
2013-06-05 23:24:00,59.6,57.6,29.89,NNE,24,0.0,1.0,93,0.00,,,0.05,Wunderground v.1.15,2013-06-06 04:24:00,
2013-06-05 23:34:00,59.6,57.6,29.88,NE,37,0.0,0.0,93,0.00,,,0.05,Wunderground v.1.15,2013-06-06 04:34:00,
2013-06-05 23:44:00,59.5,57.5,29.88,NE,38,0.0,0.0,93,0.00,,,0.05,Wunderground v.1.15,2013-06-06 04:44:00,
2013-06-05 23:55:00,59.3,57.3,29.88,NE,41,0.0,0.0,93,0.00,,,0.05,Wunderground v.1.15,2013-06-06 04:55:00,